Time;durP1;ratioP1;P1;durP2;ratioP2;P2;SDS_P1;SDS_P2;PMS_P1;PMS_P2;Temp;Humidity;BMP_temperature;BMP_pressure;BME280_temperature;BME280_humidity;BME280_pressure;Samples;Min_cycle;Max_cycle;Signal;HPM_P1;HPM_P2
2021/09/17 00:01:15;;;;;;;;;;;21.90;63.00;;;;;;490072;242;2201;-47
2021/09/17 00:03:16;;;;;;;;;;;21.90;63.00;;;;;;490585;242;1198;-46
2021/09/17 00:05:17;;;;;;;;;;;21.90;63.00;;;;;;490156;242;980;-46
2021/09/17 00:07:19;;;;;;;;;;;21.90;63.10;;;;;;490505;242;1281;-46
2021/09/17 00:09:20;;;;;;;;;;;21.90;63.20;;;;;;490125;242;1080;-46
2021/09/17 00:11:21;;;;;;;;;;;21.90;63.00;;;;;;490314;242;1309;-46
2021/09/17 00:13:23;;;;;;;;;;;21.90;63.10;;;;;;490151;242;1173;-46
2021/09/17 00:15:24;;;;;;;;;;;21.90;63.00;;;;;;490561;242;1306;-46
2021/09/17 00:17:25;;;;;;;;;;;21.90;63.00;;;;;;490157;242;1284;-46
2021/09/17 00:19:27;;;;;;;;;;;21.90;63.10;;;;;;490407;242;1180;-46
2021/09/17 00:21:28;;;;;;;;;;;21.90;63.10;;;;;;490323;242;2117;-46
2021/09/17 00:23:29;;;;;;;;;;;21.90;63.20;;;;;;490071;242;1048;-46
2021/09/17 00:25:31;;;;;;;;;;;21.90;63.20;;;;;;490200;242;1114;-46
2021/09/17 00:27:32;;;;;;;;;;;21.90;63.20;;;;;;490079;242;1334;-46
2021/09/17 00:29:33;;;;;;;;;;;21.90;63.10;;;;;;490152;242;1033;-46
2021/09/17 00:31:35;;;;;;;;;;;21.90;63.10;;;;;;490532;242;1164;-46
2021/09/17 00:33:36;;;;;;;;;;;21.90;63.20;;;;;;490517;242;1235;-46
2021/09/17 00:35:37;;;;;;;;;;;21.90;63.10;;;;;;490108;242;976;-46
2021/09/17 00:37:38;;;;;;;;;;;21.90;63.10;;;;;;490051;242;1314;-46
2021/09/17 00:39:40;;;;;;;;;;;21.90;63.20;;;;;;490559;242;1047;-47
2021/09/17 00:41:41;;;;;;;;;;;21.90;63.20;;;;;;490255;242;2113;-46
2021/09/17 00:43:42;;;;;;;;;;;21.90;63.20;;;;;;490524;242;1172;-46
2021/09/17 00:45:46;;;;;;;;;;;21.90;63.20;;;;;;490058;242;1073;-46
2021/09/17 00:47:46;;;;;;;;;;;21.90;63.20;;;;;;490366;243;2602;-46
2021/09/17 00:49:47;;;;;;;;;;;21.90;63.20;;;;;;490183;242;1059;-46
2021/09/17 00:51:49;;;;;;;;;;;21.90;63.20;;;;;;490050;242;1226;-46
2021/09/17 00:53:50;;;;;;;;;;;21.90;63.10;;;;;;490374;242;1193;-46
2021/09/17 00:55:51;;;;;;;;;;;22.00;63.10;;;;;;490550;242;1143;-46
2021/09/17 00:57:52;;;;;;;;;;;21.90;63.00;;;;;;490030;242;1160;-46
2021/09/17 00:59:54;;;;;;;;;;;21.90;63.10;;;;;;490561;242;1214;-46
2021/09/17 01:01:55;;;;;;;;;;;21.90;63.00;;;;;;490064;242;2126;-46
2021/09/17 01:03:56;;;;;;;;;;;21.90;63.00;;;;;;490134;242;1179;-46
2021/09/17 01:05:58;;;;;;;;;;;22.00;63.00;;;;;;490472;242;1232;-46
2021/09/17 01:07:59;;;;;;;;;;;21.90;62.90;;;;;;490108;242;1062;-46
2021/09/17 01:10:00;;;;;;;;;;;21.90;63.10;;;;;;490187;242;1205;-46
2021/09/17 01:12:03;;;;;;;;;;;21.90;63.00;;;;;;490395;242;1212;-46
2021/09/17 01:14:05;;;;;;;;;;;21.90;63.00;;;;;;490145;242;1185;-46
2021/09/17 01:16:06;;;;;;;;;;;22.00;63.00;;;;;;490070;242;1208;-46
2021/09/17 01:18:07;;;;;;;;;;;21.90;63.00;;;;;;490370;242;1172;-47
2021/09/17 01:20:09;;;;;;;;;;;22.00;62.90;;;;;;490175;242;1152;-46
2021/09/17 01:22:10;;;;;;;;;;;21.90;62.90;;;;;;490453;242;2113;-45
2021/09/17 01:24:11;;;;;;;;;;;21.90;62.90;;;;;;490276;242;1144;-46
2021/09/17 01:26:13;;;;;;;;;;;22.00;63.00;;;;;;490588;242;1190;-46
2021/09/17 01:28:14;;;;;;;;;;;21.90;62.90;;;;;;490105;242;1240;-46
2021/09/17 01:30:15;;;;;;;;;;;22.00;63.00;;;;;;490624;242;1060;-46
2021/09/17 01:32:17;;;;;;;;;;;21.90;63.00;;;;;;490550;242;1142;-46
2021/09/17 01:34:18;;;;;;;;;;;21.90;63.00;;;;;;490615;242;1047;-46
2021/09/17 01:36:19;;;;;;;;;;;21.90;62.90;;;;;;490594;242;1204;-46
2021/09/17 01:38:20;;;;;;;;;;;22.00;62.90;;;;;;490586;242;1603;-46
2021/09/17 01:40:22;;;;;;;;;;;22.00;62.80;;;;;;490227;242;1194;-46
2021/09/17 01:42:23;;;;;;;;;;;22.00;62.80;;;;;;490085;242;2189;-46
2021/09/17 01:44:24;;;;;;;;;;;22.00;62.90;;;;;;490195;242;1163;-46
2021/09/17 01:46:26;;;;;;;;;;;21.90;62.90;;;;;;490399;242;1155;-46
2021/09/17 01:48:27;;;;;;;;;;;22.00;63.00;;;;;;490291;242;1189;-46
2021/09/17 01:50:28;;;;;;;;;;;22.00;63.00;;;;;;490225;242;1220;-46
2021/09/17 01:52:30;;;;;;;;;;;21.90;63.00;;;;;;490523;242;1284;-46
2021/09/17 01:54:31;;;;;;;;;;;21.90;63.00;;;;;;490176;242;1068;-46
2021/09/17 01:56:32;;;;;;;;;;;21.90;63.00;;;;;;490556;242;1286;-46
2021/09/17 01:58:34;;;;;;;;;;;21.90;63.00;;;;;;490592;242;1232;-46
2021/09/17 02:00:35;;;;;;;;;;;21.90;62.90;;;;;;490582;242;1061;-46
2021/09/17 02:02:37;;;;;;;;;;;21.90;63.00;;;;;;490479;242;2137;-46
2021/09/17 02:04:38;;;;;;;;;;;21.90;63.00;;;;;;490578;242;1033;-46
2021/09/17 02:06:39;;;;;;;;;;;21.80;63.10;;;;;;490255;242;1347;-46
2021/09/17 02:08:41;;;;;;;;;;;21.80;63.10;;;;;;490342;242;1511;-46
2021/09/17 02:10:42;;;;;;;;;;;21.80;63.20;;;;;;490134;242;1193;-46
2021/09/17 02:12:43;;;;;;;;;;;21.90;63.10;;;;;;490341;242;1228;-46
2021/09/17 02:14:45;;;;;;;;;;;21.90;63.00;;;;;;490177;242;1104;-46
2021/09/17 02:16:46;;;;;;;;;;;21.90;63.00;;;;;;490210;242;1339;-46
2021/09/17 02:18:47;;;;;;;;;;;21.90;63.00;;;;;;490569;242;1060;-46
2021/09/17 02:20:48;;;;;;;;;;;21.90;63.00;;;;;;490176;242;1053;-46
2021/09/17 02:22:50;;;;;;;;;;;21.90;63.10;;;;;;490486;242;2176;-46
2021/09/17 02:24:52;;;;;;;;;;;21.90;63.10;;;;;;490398;242;1220;-46
2021/09/17 02:26:53;;;;;;;;;;;21.90;63.00;;;;;;490544;242;1309;-46
2021/09/17 02:28:54;;;;;;;;;;;21.90;63.10;;;;;;490175;242;1158;-46
2021/09/17 02:30:55;;;;;;;;;;;21.90;63.00;;;;;;490469;242;1338;-46
2021/09/17 02:32:57;;;;;;;;;;;21.90;63.00;;;;;;490565;242;1196;-45
2021/09/17 02:34:58;;;;;;;;;;;21.90;63.00;;;;;;490610;242;1047;-46
2021/09/17 02:36:59;;;;;;;;;;;21.90;63.10;;;;;;490167;242;1263;-46
2021/09/17 02:39:01;;;;;;;;;;;21.90;63.10;;;;;;490395;242;1193;-47
2021/09/17 02:41:02;;;;;;;;;;;21.90;63.00;;;;;;490453;242;1584;-46
2021/09/17 02:43:03;;;;;;;;;;;21.90;63.00;;;;;;490219;242;2114;-46
2021/09/17 02:45:05;;;;;;;;;;;21.90;62.80;;;;;;490123;242;1037;-46
2021/09/17 02:47:06;;;;;;;;;;;21.90;62.90;;;;;;490312;242;1194;-46
2021/09/17 02:49:07;;;;;;;;;;;22.00;63.00;;;;;;490554;242;1025;-46
2021/09/17 02:51:09;;;;;;;;;;;21.90;63.00;;;;;;490547;242;1147;-46
2021/09/17 02:53:10;;;;;;;;;;;21.90;63.00;;;;;;490554;242;1074;-46
2021/09/17 02:55:12;;;;;;;;;;;21.90;63.00;;;;;;490232;242;1154;-46
2021/09/17 02:57:13;;;;;;;;;;;21.90;63.10;;;;;;490066;242;1250;-46
2021/09/17 02:59:14;;;;;;;;;;;21.90;63.00;;;;;;490126;242;1237;-46
2021/09/17 03:01:16;;;;;;;;;;;21.90;63.00;;;;;;490555;242;1187;-46
2021/09/17 03:03:17;;;;;;;;;;;21.90;63.10;;;;;;490176;242;2192;-46
2021/09/17 03:05:18;;;;;;;;;;;21.90;63.00;;;;;;490075;242;1169;-47
2021/09/17 03:07:20;;;;;;;;;;;21.90;63.00;;;;;;490433;242;1324;-46
2021/09/17 03:09:21;;;;;;;;;;;21.90;63.10;;;;;;490366;242;1103;-46
2021/09/17 03:11:22;;;;;;;;;;;21.90;63.10;;;;;;489990;242;1313;-46
2021/09/17 03:13:23;;;;;;;;;;;21.90;63.00;;;;;;490310;242;1194;-46
2021/09/17 03:15:25;;;;;;;;;;;21.90;63.00;;;;;;490182;242;1133;-46
2021/09/17 03:17:26;;;;;;;;;;;21.90;63.00;;;;;;490107;242;1257;-46
2021/09/17 03:19:27;;;;;;;;;;;21.90;63.00;;;;;;490046;242;1061;-46
2021/09/17 03:21:29;;;;;;;;;;;21.90;62.90;;;;;;490348;242;1453;-46
2021/09/17 03:23:30;;;;;;;;;;;21.90;63.00;;;;;;490565;242;1278;-46
2021/09/17 03:25:31;;;;;;;;;;;21.90;63.10;;;;;;490092;242;1115;-46
2021/09/17 03:27:33;;;;;;;;;;;21.90;63.10;;;;;;490471;242;1095;-46
2021/09/17 03:29:34;;;;;;;;;;;21.90;63.10;;;;;;490120;242;1161;-46
2021/09/17 03:31:35;;;;;;;;;;;21.90;63.20;;;;;;490243;242;1172;-46
2021/09/17 03:33:37;;;;;;;;;;;21.90;63.20;;;;;;490556;242;1220;-46
2021/09/17 03:35:38;;;;;;;;;;;21.90;63.00;;;;;;490561;242;1022;-46
2021/09/17 03:37:39;;;;;;;;;;;21.90;63.00;;;;;;490043;242;1191;-46
2021/09/17 03:39:41;;;;;;;;;;;21.90;63.00;;;;;;490268;242;1195;-46
2021/09/17 03:41:44;;;;;;;;;;;21.90;63.00;;;;;;490054;242;2198;-46
2021/09/17 03:43:44;;;;;;;;;;;21.80;63.10;;;;;;490506;243;2394;-46
2021/09/17 03:45:45;;;;;;;;;;;21.90;63.00;;;;;;490429;242;1089;-46
2021/09/17 03:47:46;;;;;;;;;;;21.90;63.00;;;;;;490589;242;1101;-46
2021/09/17 03:49:48;;;;;;;;;;;21.90;63.10;;;;;;490223;242;1047;-46
2021/09/17 03:51:49;;;;;;;;;;;21.90;63.10;;;;;;490286;242;1243;-46
2021/09/17 03:53:50;;;;;;;;;;;21.90;63.00;;;;;;490185;242;1037;-46
2021/09/17 03:55:52;;;;;;;;;;;21.90;63.10;;;;;;490055;242;1154;-47
2021/09/17 03:57:53;;;;;;;;;;;21.90;63.20;;;;;;490376;242;1174;-46
2021/09/17 03:59:54;;;;;;;;;;;21.90;63.10;;;;;;490525;242;1026;-46
2021/09/17 04:02:00;;;;;;;;;;;21.90;63.10;;;;;;490101;242;2203;-46
2021/09/17 04:03:57;;;;;;;;;;;21.90;63.10;;;;;;490309;243;1373;-46
2021/09/17 04:05:58;;;;;;;;;;;21.90;63.10;;;;;;490384;242;1334;-46
2021/09/17 04:08:00;;;;;;;;;;;21.80;63.20;;;;;;490082;242;1253;-46
2021/09/17 04:10:01;;;;;;;;;;;21.90;63.20;;;;;;490055;242;1041;-46
2021/09/17 04:12:02;;;;;;;;;;;21.90;63.00;;;;;;490051;242;1225;-46
2021/09/17 04:14:04;;;;;;;;;;;21.90;62.90;;;;;;490377;242;1176;-46
2021/09/17 04:16:05;;;;;;;;;;;21.90;62.90;;;;;;490051;242;1159;-46
2021/09/17 04:18:06;;;;;;;;;;;21.90;63.10;;;;;;490561;242;1181;-45
2021/09/17 04:20:08;;;;;;;;;;;21.90;63.00;;;;;;490360;242;1045;-46
2021/09/17 04:22:10;;;;;;;;;;;22.00;63.00;;;;;;490160;242;2193;-46
2021/09/17 04:24:10;;;;;;;;;;;21.90;63.00;;;;;;490348;243;2150;-46
2021/09/17 04:26:12;;;;;;;;;;;21.90;63.00;;;;;;490219;242;1397;-47
2021/09/17 04:28:13;;;;;;;;;;;21.90;63.00;;;;;;490269;242;1169;-46
2021/09/17 04:30:14;;;;;;;;;;;21.80;63.00;;;;;;490012;242;1025;-46
2021/09/17 04:32:16;;;;;;;;;;;21.90;63.10;;;;;;489882;242;1235;-46
2021/09/17 04:34:17;;;;;;;;;;;21.90;63.10;;;;;;490001;242;1067;-46
2021/09/17 04:36:18;;;;;;;;;;;21.90;63.00;;;;;;490331;242;1332;-46
2021/09/17 04:38:20;;;;;;;;;;;21.90;63.00;;;;;;489958;242;1187;-46
2021/09/17 04:40:21;;;;;;;;;;;21.90;63.00;;;;;;490026;242;1175;-46
2021/09/17 04:42:22;;;;;;;;;;;21.90;62.90;;;;;;490077;242;2129;-46
2021/09/17 04:44:23;;;;;;;;;;;21.90;62.90;;;;;;490395;242;1120;-46
2021/09/17 04:46:25;;;;;;;;;;;21.90;62.90;;;;;;490160;242;1166;-46
2021/09/17 04:48:27;;;;;;;;;;;22.00;63.00;;;;;;489924;242;1181;-46
2021/09/17 04:50:28;;;;;;;;;;;22.00;62.90;;;;;;489838;242;1202;-46
2021/09/17 04:52:29;;;;;;;;;;;21.90;62.90;;;;;;490021;242;1213;-46
2021/09/17 04:54:30;;;;;;;;;;;22.00;63.00;;;;;;489845;242;1128;-46
2021/09/17 04:56:32;;;;;;;;;;;21.90;62.90;;;;;;489972;242;1445;-46
2021/09/17 04:58:33;;;;;;;;;;;21.90;62.90;;;;;;490110;242;1105;-46
2021/09/17 05:00:34;;;;;;;;;;;22.00;62.90;;;;;;489911;242;1228;-46
2021/09/17 05:02:36;;;;;;;;;;;21.90;62.90;;;;;;489927;242;2130;-46
2021/09/17 05:04:37;;;;;;;;;;;21.90;62.90;;;;;;489894;242;1067;-46
2021/09/17 05:06:38;;;;;;;;;;;22.00;62.90;;;;;;489921;242;1281;-46
2021/09/17 05:08:40;;;;;;;;;;;22.00;62.80;;;;;;489791;242;1220;-46
2021/09/17 05:10:41;;;;;;;;;;;21.90;63.00;;;;;;489854;242;1211;-45
2021/09/17 05:12:42;;;;;;;;;;;21.90;63.00;;;;;;489989;242;1194;-46
2021/09/17 05:14:44;;;;;;;;;;;21.90;62.90;;;;;;489851;242;1210;-46
2021/09/17 05:16:45;;;;;;;;;;;21.90;62.80;;;;;;489663;242;1282;-46
2021/09/17 05:18:46;;;;;;;;;;;22.00;62.90;;;;;;489777;242;1105;-46
2021/09/17 05:20:48;;;;;;;;;;;21.90;62.80;;;;;;489745;242;1241;-46
2021/09/17 05:22:49;;;;;;;;;;;21.90;62.90;;;;;;490228;242;2196;-46
2021/09/17 05:24:50;;;;;;;;;;;22.00;63.00;;;;;;489896;242;1044;-46
2021/09/17 05:26:52;;;;;;;;;;;21.90;63.00;;;;;;489981;242;1225;-46
2021/09/17 05:28:53;;;;;;;;;;;21.90;63.00;;;;;;489941;242;1028;-46
2021/09/17 05:30:54;;;;;;;;;;;21.90;62.90;;;;;;489773;242;1310;-46
2021/09/17 05:32:56;;;;;;;;;;;21.90;62.90;;;;;;489665;242;1200;-46
2021/09/17 05:34:57;;;;;;;;;;;21.90;63.00;;;;;;489886;242;1052;-46
2021/09/17 05:36:58;;;;;;;;;;;21.90;63.00;;;;;;489904;242;1223;-46
2021/09/17 05:38:59;;;;;;;;;;;21.90;63.00;;;;;;489734;242;1077;-46
2021/09/17 05:41:01;;;;;;;;;;;21.90;62.90;;;;;;489674;242;1231;-46
2021/09/17 05:43:02;;;;;;;;;;;21.90;63.00;;;;;;489660;242;2197;-46
2021/09/17 05:45:03;;;;;;;;;;;21.90;63.20;;;;;;489830;242;1212;-46
2021/09/17 05:47:05;;;;;;;;;;;21.90;63.00;;;;;;489655;242;1147;-46
2021/09/17 05:49:06;;;;;;;;;;;21.90;63.10;;;;;;489870;242;1123;-46
2021/09/17 05:51:07;;;;;;;;;;;22.00;62.90;;;;;;489693;242;1475;-46
2021/09/17 05:53:09;;;;;;;;;;;22.00;62.90;;;;;;489763;242;1268;-46
2021/09/17 05:55:10;;;;;;;;;;;22.00;62.90;;;;;;489943;242;1116;-46
2021/09/17 05:57:12;;;;;;;;;;;22.00;62.90;;;;;;489858;242;1135;-46
2021/09/17 05:59:13;;;;;;;;;;;22.00;62.90;;;;;;489736;242;1220;-46
2021/09/17 06:01:14;;;;;;;;;;;22.00;62.80;;;;;;489885;242;1391;-46
2021/09/17 06:03:16;;;;;;;;;;;22.00;62.90;;;;;;489634;242;2185;-46
2021/09/17 06:05:17;;;;;;;;;;;22.00;62.90;;;;;;489777;242;1143;-46
2021/09/17 06:07:18;;;;;;;;;;;22.00;62.80;;;;;;489248;242;1372;-46
2021/09/17 06:09:20;;;;;;;;;;;22.00;62.80;;;;;;489170;242;1155;-46
2021/09/17 06:11:21;;;;;;;;;;;22.00;62.90;;;;;;489254;242;2029;-46
2021/09/17 06:13:22;;;;;;;;;;;22.00;62.90;;;;;;489260;242;1053;-46
2021/09/17 06:15:24;;;;;;;;;;;21.90;62.80;;;;;;489425;242;1035;-45
2021/09/17 06:17:25;;;;;;;;;;;22.00;62.90;;;;;;489146;242;1232;-46
2021/09/17 06:19:26;;;;;;;;;;;22.00;62.90;;;;;;489274;242;1032;-47
2021/09/17 06:21:28;;;;;;;;;;;22.00;62.90;;;;;;489122;242;1333;-46
2021/09/17 06:23:29;;;;;;;;;;;22.00;62.90;;;;;;489183;242;2138;-46
2021/09/17 06:25:30;;;;;;;;;;;22.00;62.90;;;;;;489423;242;1190;-46
2021/09/17 06:27:32;;;;;;;;;;;21.90;63.00;;;;;;489156;242;1148;-46
2021/09/17 06:29:33;;;;;;;;;;;21.90;63.00;;;;;;489244;242;1151;-46
2021/09/17 06:31:34;;;;;;;;;;;21.90;62.90;;;;;;489170;242;1336;-46
2021/09/17 06:33:35;;;;;;;;;;;21.90;62.90;;;;;;489070;242;1228;-46
2021/09/17 06:35:37;;;;;;;;;;;22.00;63.00;;;;;;489215;242;1217;-46
2021/09/17 06:37:38;;;;;;;;;;;21.90;62.90;;;;;;489077;242;1154;-45
2021/09/17 06:39:39;;;;;;;;;;;22.00;62.90;;;;;;489181;242;1085;-47
2021/09/17 06:41:41;;;;;;;;;;;22.00;62.90;;;;;;489185;242;1138;-46
2021/09/17 06:43:42;;;;;;;;;;;22.00;62.80;;;;;;489519;242;2189;-46
2021/09/17 06:45:43;;;;;;;;;;;22.00;62.90;;;;;;489718;242;1505;-46
2021/09/17 06:47:45;;;;;;;;;;;21.90;63.00;;;;;;489776;242;1359;-46
2021/09/17 06:49:46;;;;;;;;;;;22.00;63.00;;;;;;489761;242;705;-46
2021/09/17 06:51:47;;;;;;;;;;;22.00;62.80;;;;;;489651;242;1553;-46
2021/09/17 06:53:49;;;;;;;;;;;22.00;62.80;;;;;;489824;242;1135;-46
2021/09/17 06:55:50;;;;;;;;;;;22.00;62.90;;;;;;489439;242;1048;-46
2021/09/17 06:57:51;;;;;;;;;;;22.00;62.90;;;;;;489169;242;1331;-46
2021/09/17 06:59:53;;;;;;;;;;;21.90;62.90;;;;;;489715;242;1101;-46
2021/09/17 07:01:54;;;;;;;;;;;21.90;63.00;;;;;;489657;242;1296;-47
2021/09/17 07:03:55;;;;;;;;;;;22.00;62.90;;;;;;489625;242;2233;-46
2021/09/17 07:05:57;;;;;;;;;;;22.00;62.80;;;;;;489530;242;1062;-46
2021/09/17 07:07:58;;;;;;;;;;;22.00;62.80;;;;;;490010;242;1130;-46
2021/09/17 07:09:59;;;;;;;;;;;22.00;62.90;;;;;;489460;242;873;-46
2021/09/17 07:12:00;;;;;;;;;;;21.90;63.00;;;;;;489472;242;1103;-46
2021/09/17 07:14:02;;;;;;;;;;;21.90;63.00;;;;;;490085;242;825;-46
2021/09/17 07:16:03;;;;;;;;;;;21.90;62.90;;;;;;489513;242;1201;-46
2021/09/17 07:18:04;;;;;;;;;;;22.00;62.90;;;;;;489345;242;1162;-46
2021/09/17 07:20:06;;;;;;;;;;;21.90;62.90;;;;;;489236;242;1199;-46
2021/09/17 07:22:08;;;;;;;;;;;21.90;62.90;;;;;;489357;242;1336;-46
2021/09/17 07:24:08;;;;;;;;;;;21.90;62.90;;;;;;489346;243;2196;-46
2021/09/17 07:26:10;;;;;;;;;;;22.00;62.90;;;;;;489122;242;1179;-46
2021/09/17 07:28:11;;;;;;;;;;;21.90;62.90;;;;;;489290;242;1387;-46
2021/09/17 07:30:12;;;;;;;;;;;22.00;62.90;;;;;;489105;242;1197;-46
2021/09/17 07:32:14;;;;;;;;;;;22.00;62.90;;;;;;489074;242;1323;-46
2021/09/17 07:34:15;;;;;;;;;;;22.00;62.90;;;;;;489082;242;1229;-46
2021/09/17 07:36:16;;;;;;;;;;;21.90;62.90;;;;;;489140;242;1252;-46
2021/09/17 07:38:18;;;;;;;;;;;22.00;63.00;;;;;;489053;242;1110;-46
2021/09/17 07:40:19;;;;;;;;;;;22.00;63.00;;;;;;489169;242;1111;-46
2021/09/17 07:42:21;;;;;;;;;;;22.00;62.90;;;;;;489049;242;1612;-46
2021/09/17 07:44:22;;;;;;;;;;;21.90;62.90;;;;;;489131;242;2181;-46
2021/09/17 07:46:23;;;;;;;;;;;22.00;62.90;;;;;;489151;242;1267;-46
2021/09/17 07:48:25;;;;;;;;;;;21.90;62.90;;;;;;489270;242;1191;-46
2021/09/17 07:50:26;;;;;;;;;;;22.00;63.00;;;;;;489116;242;1227;-46
2021/09/17 07:52:27;;;;;;;;;;;22.00;62.80;;;;;;489507;242;1573;-46
2021/09/17 07:54:28;;;;;;;;;;;22.00;62.80;;;;;;489592;242;1202;-46
2021/09/17 07:56:30;;;;;;;;;;;22.10;62.70;;;;;;489491;242;1173;-46
2021/09/17 07:58:31;;;;;;;;;;;22.00;62.70;;;;;;489623;242;1133;-46
2021/09/17 08:00:32;;;;;;;;;;;22.00;62.70;;;;;;489162;242;1523;-46
2021/09/17 08:02:34;;;;;;;;;;;22.00;62.80;;;;;;489323;242;1254;-46
2021/09/17 08:04:38;;;;;;;;;;;22.10;62.70;;;;;;489299;242;2102;-46
2021/09/17 08:06:37;;;;;;;;;;;22.10;62.60;;;;;;488948;243;1698;-46
2021/09/17 08:08:38;;;;;;;;;;;22.10;62.60;;;;;;489108;242;1187;-46
2021/09/17 08:10:39;;;;;;;;;;;22.10;62.60;;;;;;489037;242;1171;-46
2021/09/17 08:12:41;;;;;;;;;;;22.10;62.50;;;;;;489107;242;1274;-46
2021/09/17 08:14:42;;;;;;;;;;;22.10;62.40;;;;;;489051;242;1160;-46
2021/09/17 08:16:44;;;;;;;;;;;22.10;62.50;;;;;;489092;242;1223;-46
2021/09/17 08:18:46;;;;;;;;;;;22.10;62.60;;;;;;490070;242;1098;-46
2021/09/17 08:20:49;;;;;;;;;;;22.10;62.60;;;;;;489764;242;1219;-47
2021/09/17 08:22:50;;;;;;;;;;;22.20;62.50;;;;;;489193;242;1114;-46
2021/09/17 08:24:51;;;;;;;;;;;22.10;62.50;;;;;;489375;242;2205;-46
2021/09/17 08:26:53;;;;;;;;;;;22.10;62.40;;;;;;489160;242;1078;-46
2021/09/17 08:28:54;;;;;;;;;;;22.20;62.40;;;;;;489407;242;1172;-46
2021/09/17 08:30:57;;;;;;;;;;;22.10;62.40;;;;;;489317;242;1140;-46
2021/09/17 08:32:57;;;;;;;;;;;22.10;62.50;;;;;;489288;243;1997;-46
2021/09/17 08:34:58;;;;;;;;;;;22.10;62.40;;;;;;489056;242;1130;-47
2021/09/17 08:37:03;;;;;;;;;;;22.10;62.50;;;;;;489053;242;1188;-46
2021/09/17 08:39:01;;;;;;;;;;;22.20;62.50;;;;;;488893;243;2199;-46
2021/09/17 08:41:02;;;;;;;;;;;22.10;62.40;;;;;;489126;242;1490;-46
2021/09/17 08:43:03;;;;;;;;;;;22.10;62.50;;;;;;489569;242;1102;-46
2021/09/17 08:45:05;;;;;;;;;;;22.20;62.40;;;;;;490090;242;2192;-46
2021/09/17 08:47:06;;;;;;;;;;;22.20;62.50;;;;;;489689;242;1561;-46
2021/09/17 08:49:07;;;;;;;;;;;22.10;62.40;;;;;;489356;242;1190;-46
2021/09/17 08:51:09;;;;;;;;;;;22.20;62.50;;;;;;489286;242;1154;-46
2021/09/17 08:53:12;;;;;;;;;;;22.10;62.50;;;;;;489769;242;1470;-46
2021/09/17 08:55:13;;;;;;;;;;;22.10;62.50;;;;;;489161;242;1120;-46
2021/09/17 08:57:14;;;;;;;;;;;22.10;62.60;;;;;;489033;242;1328;-46
2021/09/17 08:59:16;;;;;;;;;;;22.10;62.50;;;;;;489104;242;1113;-47
2021/09/17 09:01:17;;;;;;;;;;;22.10;62.70;;;;;;489107;242;1435;-46
2021/09/17 09:03:18;;;;;;;;;;;22.10;62.70;;;;;;489174;242;1212;-46
2021/09/17 09:05:20;;;;;;;;;;;22.10;62.70;;;;;;489200;242;2185;-46
2021/09/17 09:07:21;;;;;;;;;;;22.10;62.90;;;;;;489138;242;1592;-46
2021/09/17 09:09:22;;;;;;;;;;;22.10;62.90;;;;;;489410;242;1159;-46
2021/09/17 09:11:25;;;;;;;;;;;22.10;62.80;;;;;;489179;242;1307;-46
2021/09/17 09:13:25;;;;;;;;;;;22.10;62.60;;;;;;489092;243;1767;-46
2021/09/17 09:15:26;;;;;;;;;;;22.20;62.50;;;;;;488901;242;1212;-46
2021/09/17 09:17:28;;;;;;;;;;;22.10;62.50;;;;;;488935;242;1096;-46
2021/09/17 09:19:29;;;;;;;;;;;22.20;62.60;;;;;;489081;242;1183;-46
2021/09/17 09:21:31;;;;;;;;;;;22.10;62.50;;;;;;489166;242;1203;-46
2021/09/17 09:23:32;;;;;;;;;;;22.10;62.50;;;;;;488944;242;1084;-46
2021/09/17 09:25:33;;;;;;;;;;;22.10;62.50;;;;;;488924;242;2192;-46
2021/09/17 09:27:35;;;;;;;;;;;22.10;62.60;;;;;;488951;242;1174;-46
2021/09/17 09:29:36;;;;;;;;;;;22.10;62.60;;;;;;489030;242;1186;-46
2021/09/17 09:31:37;;;;;;;;;;;22.10;62.70;;;;;;489073;242;1199;-46
2021/09/17 09:33:39;;;;;;;;;;;22.10;62.70;;;;;;489215;242;1111;-46
2021/09/17 09:35:40;;;;;;;;;;;22.10;62.70;;;;;;489005;242;1324;-46
2021/09/17 09:37:41;;;;;;;;;;;22.10;62.70;;;;;;488791;242;1281;-46
2021/09/17 09:39:42;;;;;;;;;;;22.10;62.80;;;;;;488775;242;1514;-46
2021/09/17 09:41:44;;;;;;;;;;;22.10;62.80;;;;;;489031;242;1348;-46
2021/09/17 09:43:45;;;;;;;;;;;22.10;62.80;;;;;;489904;242;2188;-46
2021/09/17 09:45:46;;;;;;;;;;;22.10;62.70;;;;;;489489;242;1231;-46
2021/09/17 09:47:48;;;;;;;;;;;22.10;62.70;;;;;;489431;242;1172;-46
2021/09/17 09:49:49;;;;;;;;;;;22.10;62.80;;;;;;490106;242;848;-46
2021/09/17 09:51:50;;;;;;;;;;;22.00;62.80;;;;;;489870;242;1157;-46
2021/09/17 09:53:52;;;;;;;;;;;22.10;62.80;;;;;;490070;242;858;-46
2021/09/17 09:55:53;;;;;;;;;;;22.10;62.80;;;;;;489525;242;1236;-46
2021/09/17 09:57:54;;;;;;;;;;;22.10;62.80;;;;;;489251;242;1150;-46
2021/09/17 09:59:56;;;;;;;;;;;22.10;62.80;;;;;;489138;242;1128;-46
2021/09/17 10:01:57;;;;;;;;;;;22.00;62.90;;;;;;489235;242;1188;-46
2021/09/17 10:03:59;;;;;;;;;;;22.00;62.90;;;;;;490098;242;2203;-46
2021/09/17 10:05:59;;;;;;;;;;;22.00;62.90;;;;;;489965;242;1758;-46
2021/09/17 10:08:01;;;;;;;;;;;22.10;62.80;;;;;;489231;242;1269;-46
2021/09/17 10:10:02;;;;;;;;;;;22.10;62.80;;;;;;489177;242;1105;-46
2021/09/17 10:12:03;;;;;;;;;;;22.00;62.80;;;;;;489059;242;1471;-46
2021/09/17 10:14:05;;;;;;;;;;;22.10;62.80;;;;;;489206;242;1297;-46
2021/09/17 10:16:06;;;;;;;;;;;22.10;62.90;;;;;;489275;242;1270;-46
2021/09/17 10:18:07;;;;;;;;;;;22.10;62.80;;;;;;489215;242;1323;-46
2021/09/17 10:20:09;;;;;;;;;;;22.10;62.80;;;;;;489255;242;1145;-46
2021/09/17 10:22:10;;;;;;;;;;;22.10;62.90;;;;;;489278;242;1191;-46
2021/09/17 10:24:12;;;;;;;;;;;22.10;62.80;;;;;;489311;242;2189;-47
2021/09/17 10:26:15;;;;;;;;;;;22.10;62.80;;;;;;489011;242;1205;-46
2021/09/17 10:28:17;;;;;;;;;;;22.10;62.80;;;;;;489137;243;1853;-46
2021/09/17 10:30:16;;;;;;;;;;;22.10;62.90;;;;;;489009;243;2038;-46
2021/09/17 10:32:17;;;;;;;;;;;22.10;62.80;;;;;;489103;242;1289;-46
2021/09/17 10:34:19;;;;;;;;;;;22.10;62.80;;;;;;489211;242;1169;-46
2021/09/17 10:36:20;;;;;;;;;;;22.10;62.80;;;;;;489241;242;1284;-46
2021/09/17 10:38:21;;;;;;;;;;;22.10;62.80;;;;;;490061;242;1029;-46
2021/09/17 10:40:23;;;;;;;;;;;22.10;62.90;;;;;;490059;242;1109;-46
2021/09/17 10:42:27;;;;;;;;;;;22.10;62.70;;;;;;489549;242;1101;-46
2021/09/17 10:44:25;;;;;;;;;;;22.10;62.70;;;;;;489452;243;2185;-46
2021/09/17 10:46:28;;;;;;;;;;;22.10;62.80;;;;;;488971;242;1389;-46
2021/09/17 10:48:29;;;;;;;;;;;22.00;62.90;;;;;;489108;243;2084;-46
2021/09/17 10:50:30;;;;;;;;;;;22.00;63.00;;;;;;489118;242;1251;-46
2021/09/17 10:52:32;;;;;;;;;;;22.00;63.00;;;;;;488963;242;1314;-46
2021/09/17 10:54:33;;;;;;;;;;;22.00;63.00;;;;;;488983;242;1166;-46
2021/09/17 10:56:34;;;;;;;;;;;22.00;62.80;;;;;;488950;242;1303;-46
2021/09/17 10:58:36;;;;;;;;;;;22.00;62.80;;;;;;489053;242;1274;-46
2021/09/17 11:00:37;;;;;;;;;;;22.10;62.80;;;;;;489206;242;1378;-46
2021/09/17 11:02:38;;;;;;;;;;;22.10;62.80;;;;;;489065;242;1115;-46
2021/09/17 11:04:39;;;;;;;;;;;22.00;62.80;;;;;;489066;242;2184;-46
2021/09/17 11:06:41;;;;;;;;;;;22.00;62.80;;;;;;489038;242;1315;-46
2021/09/17 12:24:12;;;;;;;;;;;22.10;62.60;;;;;;501577;236;2749;-47
2021/09/17 12:26:13;;;;;;;;;;;22.10;62.70;;;;;;507655;234;2180;-48
2021/09/17 12:28:17;;;;;;;;;;;22.10;62.70;;;;;;511995;232;1341;-48
2021/09/17 12:30:16;;;;;;;;;;;22.10;62.70;;;;;;506979;234;1867;-47
2021/09/17 12:32:17;;;;;;;;;;;22.10;62.70;;;;;;511894;232;1199;-48
2021/09/17 12:34:21;;;;;;;;;;;22.10;62.80;;;;;;507417;234;1078;-46
2021/09/17 12:36:20;;;;;;;;;;;22.10;62.70;;;;;;507651;234;2067;-46
2021/09/17 12:38:21;;;;;;;;;;;22.10;62.70;;;;;;502849;235;1205;-47
2021/09/17 12:40:22;;;;;;;;;;;22.10;62.80;;;;;;517026;229;1113;-45
2021/09/17 12:42:24;;;;;;;;;;;22.10;62.70;;;;;;511870;232;1275;-46
2021/09/17 12:44:25;;;;;;;;;;;22.10;62.70;;;;;;507332;234;1094;-46
2021/09/17 12:46:26;;;;;;;;;;;22.00;62.70;;;;;;511961;232;2167;-46
2021/09/17 12:48:28;;;;;;;;;;;22.10;62.70;;;;;;507025;234;1163;-45
2021/09/17 12:50:29;;;;;;;;;;;22.10;62.70;;;;;;511874;232;1132;-45
2021/09/17 12:52:33;;;;;;;;;;;22.00;62.80;;;;;;506999;234;1333;-45
2021/09/17 12:54:32;;;;;;;;;;;22.10;62.80;;;;;;508344;234;2229;-46
2021/09/17 12:56:33;;;;;;;;;;;22.10;62.70;;;;;;503106;235;1168;-46
2021/09/17 12:58:35;;;;;;;;;;;22.10;62.50;;;;;;516965;229;1256;-46
2021/09/17 13:00:36;;;;;;;;;;;22.10;62.50;;;;;;511728;233;1463;-47
2021/09/17 13:02:37;;;;;;;;;;;22.20;62.60;;;;;;507041;234;1138;-45
2021/09/17 13:04:39;;;;;;;;;;;22.10;62.70;;;;;;511646;233;2178;-46
2021/09/17 13:06:41;;;;;;;;;;;22.10;62.70;;;;;;506929;234;1366;-45
2021/09/17 13:08:41;;;;;;;;;;;22.10;62.70;;;;;;507487;234;1590;-45
2021/09/17 13:10:43;;;;;;;;;;;22.10;62.70;;;;;;503140;235;1182;-45
2021/09/17 13:12:44;;;;;;;;;;;22.10;62.70;;;;;;516917;229;1286;-45